Terminal Aerodrome Forecast
Issued by NWS Mt. Holly, NJ

Home | Current Version | Previous Version | Text Only | Print | Product List | Glossary On
Versions: 1 2 3 4 5 6 7 8 9 10 11 12 13 14 15 16 17 18 19 20 21 22 23 24 25 26 27
000
FTUS41 KPHI 251729
TAFPHL
TAF
KPHL 251729Z 2518/2624 23009G19KT P6SM SCT060 BKN200
     FM252100 25011G20KT P6SM VCTS SCT040CB BKN150
      TEMPO 2522/2524 32015G30KT 3SM TSRA SCT020 OVC040CB
     FM260100 28005KT P6SM SCT100
     FM261500 30010KT P6SM SCT050
     FM261900 28012KT P6SM SCT050=

USA.gov is the U.S. government's official web portal to all federal, state and local government web resources and services.